createdAt,value
2023-01-12T00:00:56.698Z,89.38
2023-01-12T00:01:59.432Z,87.95
2023-01-12T00:03:02.248Z,87.61
2023-01-12T00:04:04.898Z,87.61
2023-01-12T00:05:08.187Z,87.09
2023-01-12T00:06:11.475Z,86.59
2023-01-12T00:07:15.312Z,85.75
2023-01-12T00:08:17.279Z,85.17
2023-01-12T00:09:19.821Z,84.04
2023-01-12T00:10:21.929Z,83.90
2023-01-12T00:11:25.233Z,83.43
2023-01-12T00:12:27.458Z,84.01
2023-01-12T00:13:31.242Z,84.12
2023-01-12T00:14:35.818Z,84.35
2023-01-12T00:15:41.485Z,83.36
2023-01-12T00:16:44.223Z,82.98
2023-01-12T00:17:46.417Z,82.38
2023-01-12T00:18:49.983Z,82.17
2023-01-12T00:19:53.766Z,84.04
2023-01-12T00:20:55.902Z,83.57
2023-01-12T00:22:12.720Z,82.84
2023-01-12T00:23:14.977Z,82.48
2023-01-12T00:24:18.774Z,82.70
2023-01-12T00:25:20.805Z,83.06
2023-01-12T00:26:23.180Z,83.43
2023-01-12T00:27:25.199Z,84.73
2023-01-12T00:28:28.423Z,84.03
2023-01-12T00:29:30.697Z,83.82
2023-01-12T00:30:32.729Z,82.17
2023-01-12T00:31:34.917Z,84.30
2023-01-12T00:32:37.036Z,83.97
2023-01-12T00:33:41.010Z,82.50
2023-01-12T00:34:44.674Z,82.28
2023-01-12T00:35:47.199Z,82.87
2023-01-12T00:36:49.786Z,83.95
2023-01-12T00:37:51.700Z,84.60
2023-01-12T00:38:54.321Z,83.54
2023-01-12T00:40:02.521Z,84.13
2023-01-12T00:41:09.575Z,83.75
2023-01-12T00:42:32.458Z,83.59
2023-01-12T00:43:53.438Z,83.33
2023-01-12T00:45:13.919Z,84.62
2023-01-12T00:46:16.723Z,83.67
2023-01-12T00:47:20.000Z,84.15
2023-01-12T00:49:25.944Z,82.96
2023-01-12T00:50:28.464Z,82.76
2023-01-12T00:51:30.550Z,82.77
2023-01-12T00:52:32.466Z,83.77
2023-01-12T00:53:34.496Z,83.80
2023-01-12T00:54:37.030Z,83.37
2023-01-12T00:55:44.435Z,82.82
2023-01-12T00:56:50.075Z,82.35
2023-01-12T00:57:53.285Z,82.32
2023-01-12T00:58:56.472Z,83.18
2023-01-12T01:00:00.414Z,83.29
2023-01-12T01:01:07.201Z,83.90
2023-01-12T01:02:09.948Z,84.13
2023-01-12T01:03:14.104Z,84.40
2023-01-12T01:04:17.104Z,84.40
2023-01-12T01:05:19.828Z,85.05
2023-01-12T01:06:23.093Z,85.43
2023-01-12T01:07:25.571Z,85.38
2023-01-12T01:08:27.952Z,85.49
2023-01-12T01:09:30.617Z,85.52
2023-01-12T01:10:32.742Z,85.53
2023-01-12T01:11:35.543Z,85.42
2023-01-12T01:12:38.144Z,85.52
2023-01-12T01:13:45.004Z,85.74
2023-01-12T01:14:47.838Z,86.33
2023-01-12T01:15:50.611Z,85.94
2023-01-12T01:16:53.740Z,85.72
2023-01-12T01:17:56.899Z,85.76
2023-01-12T01:18:59.593Z,86.00
2023-01-12T01:20:02.068Z,86.37
2023-01-12T01:21:04.969Z,86.37
2023-01-12T01:22:07.139Z,86.14
2023-01-12T01:23:09.127Z,86.56
2023-01-12T01:24:13.156Z,87.10
2023-01-12T01:25:15.511Z,87.01
2023-01-12T01:26:22.673Z,87.29
2023-01-12T01:27:25.190Z,87.13
2023-01-12T01:28:27.593Z,86.97
2023-01-12T01:29:29.603Z,87.27
2023-01-12T01:30:34.093Z,87.51
2023-01-12T01:31:37.050Z,87.34
2023-01-12T01:32:40.284Z,87.08
2023-01-12T01:33:44.059Z,87.58
2023-01-12T01:34:46.584Z,86.98
2023-01-12T01:35:48.798Z,86.83
2023-01-12T01:36:51.021Z,86.79
2023-01-12T01:37:53.128Z,86.63
2023-01-12T01:38:56.082Z,86.97
2023-01-12T01:39:58.187Z,86.90
2023-01-12T01:41:02.701Z,86.76
2023-01-12T01:42:04.987Z,86.34
2023-01-12T01:43:11.194Z,86.45
2023-01-12T01:44:35.647Z,86.24
2023-01-12T01:45:38.113Z,86.12
2023-01-12T01:46:53.378Z,86.29
2023-01-12T01:47:59.276Z,86.56
2023-01-12T01:50:33.886Z,86.75
2023-01-12T01:51:36.507Z,86.32
2023-01-12T01:52:42.166Z,86.32
2023-01-12T01:53:46.688Z,86.06
2023-01-12T01:54:56.085Z,86.58
2023-01-12T01:56:02.097Z,87.13
2023-01-12T01:57:06.185Z,86.93
2023-01-12T01:58:12.016Z,87.16
2023-01-12T01:59:18.279Z,86.91
2023-01-12T02:00:22.215Z,85.89
2023-01-12T02:01:26.427Z,86.20
2023-01-12T02:02:30.124Z,86.32
2023-01-12T02:03:36.604Z,86.93
2023-01-12T02:04:38.493Z,86.89
2023-01-12T02:05:44.278Z,86.47
2023-01-12T02:06:49.400Z,86.20
2023-01-12T02:07:53.176Z,85.98
2023-01-12T02:09:01.315Z,85.74
2023-01-12T02:10:05.463Z,86.09
2023-01-12T02:11:10.397Z,86.45
2023-01-12T02:12:32.039Z,85.51
2023-01-12T02:13:53.527Z,86.08
2023-01-12T02:15:14.570Z,86.32
2023-01-12T02:16:24.728Z,85.70
2023-01-12T02:17:49.460Z,85.62
2023-01-12T02:18:58.041Z,85.59
2023-01-12T02:20:37.281Z,85.70
2023-01-12T02:21:55.623Z,86.16
2023-01-12T02:23:18.577Z,86.14
2023-01-12T02:24:33.512Z,86.16
2023-01-12T02:26:16.863Z,86.08
2023-01-12T02:27:35.414Z,86.79
2023-01-12T02:28:56.315Z,86.59
2023-01-12T02:30:29.560Z,86.45
2023-01-12T02:31:44.354Z,86.01
2023-01-12T02:33:02.543Z,85.18
2023-01-12T02:34:27.026Z,85.36
2023-01-12T02:35:32.957Z,84.81
2023-01-12T02:36:38.747Z,84.63
2023-01-12T02:37:50.255Z,84.42
2023-01-12T02:39:20.446Z,84.47
2023-01-12T02:40:57.930Z,83.92
2023-01-12T02:42:25.451Z,84.03
2023-01-12T02:43:30.918Z,83.95
2023-01-12T02:44:39.827Z,84.29
2023-01-12T02:45:47.158Z,83.83
2023-01-12T02:46:51.519Z,83.65
2023-01-12T02:48:19.033Z,84.17
2023-01-12T02:49:25.181Z,83.79
2023-01-12T02:50:37.110Z,83.75
2023-01-12T02:51:48.679Z,83.97
2023-01-12T02:52:57.873Z,84.16
2023-01-12T02:54:06.635Z,84.31
2023-01-12T02:55:10.388Z,84.27
2023-01-12T02:56:16.474Z,84.26
2023-01-12T02:57:22.403Z,84.30
2023-01-12T02:58:27.803Z,84.29
2023-01-12T02:59:33.883Z,84.48
2023-01-12T03:00:38.720Z,83.86
2023-01-12T03:01:44.304Z,84.42
2023-01-12T03:02:46.355Z,84.45
2023-01-12T03:03:49.058Z,84.49
2023-01-12T03:04:52.106Z,84.56
2023-01-12T03:05:57.473Z,84.98
2023-01-12T03:07:03.424Z,84.98
2023-01-12T03:08:08.194Z,84.96
2023-01-12T03:09:11.371Z,84.68
2023-01-12T03:10:29.591Z,84.64
2023-01-12T03:11:31.880Z,85.01
2023-01-12T03:12:37.476Z,84.66
2023-01-12T03:13:52.428Z,84.79
2023-01-12T03:14:58.176Z,84.98
2023-01-12T03:16:02.863Z,84.51
2023-01-12T03:17:08.797Z,85.23
2023-01-12T03:18:34.959Z,84.96
2023-01-12T03:19:40.885Z,84.68
2023-01-12T03:20:50.797Z,84.39
2023-01-12T03:22:06.919Z,84.49
2023-01-12T03:23:15.866Z,84.81
2023-01-12T03:24:22.144Z,84.62
2023-01-12T03:25:27.741Z,84.56
2023-01-12T03:26:32.905Z,84.58
2023-01-12T03:27:38.822Z,84.31
2023-01-12T03:28:44.749Z,84.38
2023-01-12T03:29:53.153Z,84.84
2023-01-12T03:31:05.172Z,84.87
2023-01-12T03:32:09.001Z,84.92
2023-01-12T03:33:13.282Z,84.67
2023-01-12T03:34:15.819Z,85.07
2023-01-12T03:35:21.540Z,85.01
2023-01-12T03:36:48.883Z,84.80
2023-01-12T03:38:12.841Z,84.79
2023-01-12T03:39:36.819Z,85.07
2023-01-12T03:40:42.512Z,84.70
2023-01-12T03:42:11.818Z,84.93
2023-01-12T03:43:23.554Z,85.15
2023-01-12T03:44:35.348Z,85.38
2023-01-12T03:45:41.536Z,85.49
2023-01-12T03:46:47.502Z,85.19
2023-01-12T03:47:53.406Z,85.41
2023-01-12T03:49:22.508Z,85.65
2023-01-12T03:50:28.315Z,85.67
2023-01-12T03:51:34.133Z,85.63
2023-01-12T03:52:39.521Z,86.04
2023-01-12T03:53:45.339Z,86.18
2023-01-12T03:54:51.134Z,86.15
2023-01-12T03:55:57.179Z,86.50
2023-01-12T03:57:01.650Z,85.85
2023-01-12T03:58:05.496Z,85.84
2023-01-12T03:59:09.141Z,85.61
2023-01-12T04:00:14.444Z,85.93
2023-01-12T04:01:17.435Z,86.01
2023-01-12T04:02:19.852Z,85.40
2023-01-12T04:03:23.768Z,86.16
2023-01-12T08:56:12.973Z,94.12
2023-01-12T08:57:19.361Z,93.41
2023-01-12T08:58:22.977Z,95.27
2023-01-12T08:59:25.256Z,94.70
2023-01-12T09:00:27.967Z,92.80
2023-01-12T09:01:31.193Z,92.47
2023-01-12T09:02:33.871Z,91.89
2023-01-12T09:03:37.269Z,91.07
2023-01-12T09:04:40.854Z,91.39
2023-01-12T09:05:43.726Z,91.12
2023-01-12T09:06:46.687Z,90.93
2023-01-12T09:07:49.887Z,90.82
2023-01-12T09:09:01.347Z,90.74
2023-01-12T09:10:05.886Z,89.36
2023-01-12T09:11:10.687Z,90.39
2023-01-12T09:12:13.959Z,89.16
2023-01-12T09:13:16.013Z,89.41
2023-01-12T09:14:18.547Z,89.88
2023-01-12T09:15:21.128Z,89.23
2023-01-12T09:16:25.069Z,90.21
2023-01-12T09:17:29.214Z,89.84
2023-01-12T09:18:31.755Z,89.35
2023-01-12T09:19:33.940Z,89.06
2023-01-12T09:20:35.961Z,91.12
2023-01-12T09:21:39.555Z,91.66
2023-01-12T09:22:41.752Z,91.34
2023-01-12T09:23:46.005Z,90.07
2023-01-12T09:24:49.038Z,90.19
2023-01-12T09:25:51.233Z,89.57
2023-01-12T09:26:53.657Z,91.57
2023-01-12T09:27:56.442Z,89.90
2023-01-12T09:29:04.154Z,88.81
2023-01-12T09:30:10.097Z,90.58
2023-01-12T09:31:17.350Z,87.69
2023-01-12T09:32:26.019Z,91.16
2023-01-12T09:33:25.588Z,89.44
2023-01-12T09:34:29.101Z,92.15
2023-01-12T09:35:31.323Z,92.12
2023-01-12T09:36:37.290Z,89.01
2023-01-12T09:37:41.739Z,91.73
2023-01-12T09:38:45.740Z,92.01
2023-01-12T09:39:47.797Z,91.64
2023-01-12T09:40:50.131Z,92.21
2023-01-12T09:42:11.214Z,92.39
2023-01-12T09:43:33.273Z,90.18
2023-01-12T09:45:04.474Z,88.46
2023-01-12T09:46:20.995Z,87.37
2023-01-12T09:47:56.703Z,87.18
2023-01-12T09:48:59.010Z,87.49
2023-01-12T09:50:09.994Z,87.32
2023-01-12T09:51:18.303Z,88.14
2023-01-12T09:52:26.975Z,88.14
2023-01-12T09:53:32.841Z,87.82
2023-01-12T09:54:35.359Z,87.41
2023-01-12T09:55:57.276Z,86.65
2023-01-12T09:57:03.511Z,86.08
2023-01-12T09:58:29.511Z,86.59
2023-01-12T10:00:08.157Z,85.96
2023-01-12T10:01:28.741Z,90.38
2023-01-12T10:02:26.213Z,89.59
2023-01-12T10:03:36.913Z,87.91
2023-01-12T10:04:39.914Z,86.57
2023-01-12T10:05:51.687Z,87.92
2023-01-12T10:06:55.472Z,87.50
2023-01-12T10:07:58.246Z,87.29
2023-01-12T10:09:04.238Z,87.29
2023-01-12T10:10:08.826Z,88.21
2023-01-12T10:11:17.238Z,90.71
2023-01-12T10:12:27.005Z,91.76
2023-01-12T10:13:36.613Z,89.49
2023-01-12T10:15:05.709Z,93.41
2023-01-12T10:16:13.062Z,91.00
2023-01-12T10:17:25.376Z,90.67
2023-01-12T10:18:32.227Z,88.71
2023-01-12T10:19:38.923Z,86.71
2023-01-12T10:20:45.221Z,85.45
2023-01-12T10:21:50.834Z,85.04
2023-01-12T10:22:56.646Z,86.53
2023-01-12T10:24:00.239Z,88.57
2023-01-12T10:25:23.684Z,90.32
2023-01-12T10:26:29.545Z,89.26
2023-01-12T10:27:35.383Z,90.21
2023-01-12T10:28:38.451Z,88.34
2023-01-12T10:29:41.834Z,87.22
2023-01-12T10:30:44.296Z,86.34
2023-01-12T10:31:47.500Z,87.11
2023-01-12T10:32:49.630Z,87.14
2023-01-12T10:34:07.590Z,87.33
2023-01-12T10:35:18.955Z,85.56
2023-01-12T10:36:24.324Z,86.85
2023-01-12T10:37:27.509Z,88.12
2023-01-12T10:38:35.221Z,87.65
2023-01-12T10:39:38.702Z,86.66
2023-01-12T10:40:40.945Z,89.49
2023-01-12T10:41:43.735Z,86.90
2023-01-12T10:43:21.611Z,86.32
2023-01-12T10:44:24.410Z,85.94
2023-01-12T10:45:28.594Z,85.83
2023-01-12T10:46:32.322Z,84.00
2023-01-12T10:47:34.663Z,83.58
2023-01-12T10:48:42.662Z,84.27
2023-01-12T10:49:44.956Z,84.57
2023-01-12T10:50:59.201Z,84.22
2023-01-12T10:52:07.823Z,85.34
2023-01-12T10:53:14.156Z,88.48
2023-01-12T10:54:20.355Z,87.39
2023-01-12T10:55:24.987Z,89.24
2023-01-12T10:56:40.135Z,87.59
2023-01-12T10:57:44.106Z,85.84
2023-01-12T10:58:56.079Z,85.21
2023-01-12T11:00:02.025Z,85.76
2023-01-12T11:01:06.746Z,85.15
2023-01-12T11:02:12.667Z,85.03
2023-01-12T11:03:32.476Z,86.01
2023-01-12T11:04:42.041Z,84.81
2023-01-12T11:05:44.312Z,85.46
2023-01-12T11:06:59.192Z,88.46
2023-01-12T11:08:02.352Z,87.28
2023-01-12T11:09:28.036Z,87.44
2023-01-12T11:10:35.425Z,88.56
2023-01-12T11:11:38.084Z,89.11
2023-01-12T11:12:40.210Z,90.05
2023-01-12T11:13:44.285Z,88.96
2023-01-12T11:15:06.002Z,89.37
2023-01-12T11:16:15.626Z,87.09
2023-01-12T11:17:49.894Z,87.40
2023-01-12T11:18:58.914Z,91.31
2023-01-12T11:20:03.350Z,89.65
2023-01-12T11:21:09.029Z,88.49
2023-01-12T11:22:16.872Z,87.79
2023-01-12T11:23:25.403Z,89.82
2023-01-12T11:24:34.334Z,88.90
2023-01-12T11:25:40.266Z,88.57
2023-01-12T11:27:01.632Z,90.59
2023-01-12T11:28:10.771Z,88.72
2023-01-12T11:29:35.385Z,88.75
2023-01-12T11:30:45.447Z,88.67
2023-01-12T11:31:50.750Z,90.33
2023-01-12T11:32:56.622Z,90.50
2023-01-12T11:34:06.226Z,87.70
2023-01-12T11:35:18.422Z,85.89
2023-01-12T11:36:33.899Z,86.85
2023-01-12T11:37:39.843Z,85.64
2023-01-12T11:38:49.371Z,86.45
2023-01-12T11:39:55.191Z,85.97
2023-01-12T11:40:58.066Z,86.15
2023-01-12T11:42:21.315Z,86.79
2023-01-12T11:43:48.548Z,87.04
2023-01-12T11:45:00.873Z,85.73
2023-01-12T11:47:26.313Z,87.95
2023-01-12T11:48:32.497Z,87.70
2023-01-12T11:49:53.788Z,85.18
2023-01-12T11:50:58.864Z,85.81
2023-01-12T11:52:02.425Z,85.08
2023-01-12T11:53:06.760Z,83.80
2023-01-12T11:54:18.397Z,83.79
2023-01-12T11:55:39.389Z,83.06
2023-01-12T11:57:17.116Z,82.67
2023-01-12T11:58:38.817Z,83.14
2023-01-12T11:59:49.577Z,84.90
2023-01-12T12:01:10.982Z,83.83
2023-01-12T12:03:40.746Z,83.42
2023-01-12T12:05:03.989Z,82.50
2023-01-12T12:06:11.186Z,83.71
2023-01-12T12:07:32.413Z,86.61
2023-01-12T12:08:55.046Z,86.29
2023-01-12T12:10:18.497Z,83.56
2023-01-12T12:11:36.681Z,83.47
2023-01-12T12:13:03.194Z,84.22
2023-01-12T12:14:18.470Z,84.04
2023-01-12T12:15:26.489Z,83.10
2023-01-12T12:16:51.627Z,83.87
2023-01-12T12:18:04.045Z,83.78
2023-01-12T12:19:25.892Z,83.65
2023-01-12T12:20:48.684Z,84.64
2023-01-12T12:21:54.754Z,84.18
2023-01-12T12:23:07.291Z,84.35
2023-01-12T12:24:31.732Z,83.30
2023-01-12T12:25:49.316Z,83.87
2023-01-12T12:27:04.474Z,84.43
2023-01-12T12:28:10.747Z,83.39
2023-01-12T12:29:25.493Z,83.78
2023-01-12T12:30:47.909Z,85.73
2023-01-12T12:32:17.157Z,84.25
2023-01-12T12:33:40.366Z,84.21
2023-01-12T12:35:11.128Z,83.18
2023-01-12T12:36:17.338Z,82.41
2023-01-12T12:38:54.521Z,82.69
2023-01-12T12:40:15.245Z,82.48
2023-01-12T12:41:45.694Z,82.52
2023-01-12T12:43:16.321Z,82.90
2023-01-12T12:45:01.003Z,82.95
2023-01-12T12:46:22.473Z,83.28
2023-01-12T12:47:42.043Z,83.33
2023-01-12T12:50:26.284Z,83.99
2023-01-12T12:51:31.983Z,84.03
2023-01-12T12:52:36.365Z,84.07
2023-01-12T12:53:43.889Z,84.23
2023-01-12T12:54:47.428Z,84.45
2023-01-12T12:55:52.386Z,84.35
2023-01-12T12:56:56.130Z,84.52
2023-01-12T12:58:07.494Z,84.43
2023-01-12T12:59:30.527Z,84.53
2023-01-12T13:00:38.852Z,84.39
2023-01-12T13:01:43.852Z,84.21
2023-01-12T13:02:55.796Z,83.68
2023-01-12T13:04:05.274Z,83.56
2023-01-12T13:05:09.945Z,83.15
2023-01-12T13:06:22.317Z,83.46
2023-01-12T13:07:26.894Z,82.94
2023-01-12T13:08:33.176Z,82.96
2023-01-12T13:09:38.512Z,82.80
2023-01-12T13:10:45.027Z,82.91
2023-01-12T13:11:53.977Z,82.85
2023-01-12T13:12:59.800Z,82.90
2023-01-12T13:14:05.761Z,82.94
2023-01-12T13:15:20.698Z,82.79
2023-01-12T13:16:30.695Z,82.75
2023-01-12T13:17:36.748Z,82.74
2023-01-12T13:18:51.805Z,83.05
2023-01-12T13:20:13.560Z,82.97
2023-01-12T13:22:45.234Z,83.05
2023-01-12T13:23:51.186Z,83.10
2023-01-12T13:24:55.272Z,82.66
2023-01-12T13:25:58.337Z,82.55
2023-01-12T13:27:01.629Z,82.74
2023-01-12T13:28:07.800Z,82.69
2023-01-12T13:29:31.736Z,83.16
2023-01-12T13:30:40.728Z,83.13
2023-01-12T13:31:44.897Z,83.46
2023-01-12T13:32:57.443Z,83.68
2023-01-12T13:35:38.778Z,83.89
2023-01-12T13:36:42.940Z,84.03
2023-01-12T13:39:22.085Z,82.99
2023-01-12T13:40:30.180Z,82.82
2023-01-12T13:41:55.928Z,82.78
2023-01-12T13:43:18.884Z,82.85
2023-01-12T13:44:29.137Z,82.62
2023-01-12T13:45:33.349Z,82.69
2023-01-12T13:46:42.426Z,82.38
2023-01-12T13:47:50.045Z,82.63
2023-01-12T13:48:55.490Z,82.68
2023-01-12T13:50:01.746Z,82.73
2023-01-12T13:51:13.904Z,82.35
2023-01-12T13:52:22.488Z,82.92
2023-01-12T13:53:31.004Z,82.84
2023-01-12T13:54:33.678Z,82.86
2023-01-12T13:55:36.830Z,83.11
2023-01-12T13:56:40.098Z,83.00
2023-01-12T13:57:44.414Z,83.38
2023-01-12T13:58:49.181Z,83.08
2023-01-12T14:00:06.279Z,83.04
2023-01-12T14:01:20.979Z,82.82
2023-01-12T14:02:24.468Z,83.11
2023-01-12T14:03:45.449Z,83.03
2023-01-12T14:04:57.171Z,83.01
2023-01-12T14:06:05.647Z,82.98
2023-01-12T14:07:30.104Z,83.44
2023-01-12T14:08:52.664Z,83.54
2023-01-12T14:09:59.298Z,83.61
2023-01-12T14:11:19.028Z,83.81
2023-01-12T14:12:41.504Z,83.85
2023-01-12T14:14:01.272Z,84.27
2023-01-12T14:15:46.038Z,84.11
2023-01-12T14:17:08.035Z,83.84
2023-01-12T14:18:17.143Z,83.93
2023-01-12T14:19:26.966Z,83.87
2023-01-12T14:20:30.826Z,83.82
2023-01-12T14:23:15.385Z,84.28
2023-01-12T14:24:21.374Z,84.01
2023-01-12T14:25:25.485Z,83.93
2023-01-12T14:26:28.030Z,84.01
2023-01-12T14:27:30.048Z,84.31
2023-01-12T14:28:32.801Z,84.56
2023-01-12T14:29:36.729Z,84.53
2023-01-12T14:30:43.486Z,84.61
2023-01-12T14:31:49.075Z,84.69
2023-01-12T14:32:53.357Z,84.97
2023-01-12T14:33:59.093Z,85.22
2023-01-12T14:35:02.029Z,84.79
2023-01-12T14:36:07.772Z,84.38
2023-01-12T14:38:18.750Z,84.29
2023-01-12T14:39:24.629Z,84.16
2023-01-12T14:40:30.602Z,84.17
2023-01-12T14:41:52.262Z,84.33
2023-01-12T14:43:13.140Z,84.14
2023-01-12T14:44:43.785Z,83.77
2023-01-12T14:46:19.663Z,83.92
2023-01-12T14:47:32.205Z,83.90
2023-01-12T14:48:38.221Z,83.83
2023-01-12T14:49:42.762Z,83.99
2023-01-12T14:51:01.005Z,84.16
2023-01-12T14:52:16.109Z,85.10
2023-01-12T14:53:26.898Z,85.72
2023-01-12T14:54:34.365Z,85.72
2023-01-12T14:55:39.509Z,86.34
2023-01-12T14:56:45.373Z,86.42
2023-01-12T14:57:51.583Z,86.89
2023-01-12T14:58:54.129Z,86.98
2023-01-12T14:59:58.407Z,86.97
2023-01-12T15:01:01.383Z,86.91
2023-01-12T15:02:16.630Z,87.14
2023-01-12T15:03:31.869Z,87.27
2023-01-12T15:04:29.621Z,87.55
2023-01-12T15:05:33.893Z,87.58
2023-01-12T15:06:40.828Z,87.80
2023-01-12T15:08:01.200Z,87.80
2023-01-12T15:09:04.665Z,87.75
2023-01-12T15:10:14.653Z,87.72
2023-01-12T15:11:20.582Z,87.51
2023-01-12T15:12:29.977Z,87.44
2023-01-12T15:13:35.159Z,87.34
2023-01-12T15:14:37.300Z,86.98
2023-01-12T15:15:59.231Z,86.80
2023-01-12T15:17:19.674Z,87.04
2023-01-12T15:18:40.521Z,86.97
2023-01-12T15:20:00.961Z,87.14
2023-01-12T15:21:22.597Z,87.21
2023-01-12T15:22:45.948Z,87.44
2023-01-12T15:24:08.072Z,86.98
2023-01-12T15:25:35.559Z,87.54
2023-01-12T15:26:37.969Z,87.26
2023-01-12T15:27:40.596Z,87.49
2023-01-12T15:28:44.254Z,87.59
2023-01-12T15:29:47.311Z,87.44
2023-01-12T15:30:52.951Z,87.57
2023-01-12T15:31:56.062Z,87.88
2023-01-12T15:32:59.090Z,87.42
2023-01-12T15:34:02.392Z,87.42
2023-01-12T15:35:08.748Z,87.56
2023-01-12T15:36:14.116Z,87.19
2023-01-12T15:37:19.549Z,87.53
2023-01-12T15:38:22.387Z,87.36
2023-01-12T15:39:24.506Z,87.52
2023-01-12T15:40:30.408Z,87.58
2023-01-12T15:41:51.393Z,88.05
2023-01-12T15:42:53.838Z,87.98
2023-01-12T15:43:55.993Z,88.11
2023-01-12T15:45:00.285Z,87.47
2023-01-12T15:46:03.578Z,86.97
2023-01-12T15:47:07.328Z,86.93
2023-01-12T15:48:11.649Z,87.08
2023-01-12T15:49:17.725Z,86.90
2023-01-12T15:50:20.196Z,87.19
2023-01-12T15:51:25.409Z,87.29
2023-01-12T15:52:31.059Z,87.52
2023-01-12T15:53:33.510Z,87.47
2023-01-12T15:54:36.444Z,87.53
2023-01-12T15:55:39.541Z,87.39
2023-01-12T15:56:41.869Z,87.58
2023-01-12T15:57:45.202Z,87.94
2023-01-12T15:58:48.662Z,87.62
2023-01-12T15:59:51.749Z,87.58
2023-01-12T16:00:54.149Z,87.46
2023-01-12T16:02:25.718Z,87.01
2023-01-12T16:04:04.792Z,87.56
2023-01-12T16:04:43.111Z,87.53
2023-01-12T16:05:47.375Z,87.37
2023-01-12T16:06:51.903Z,87.48
2023-01-12T16:07:55.147Z,87.37
2023-01-12T16:09:00.099Z,87.78
2023-01-12T16:10:04.269Z,88.08
2023-01-12T16:11:09.104Z,88.46
2023-01-12T16:12:12.517Z,87.91
2023-01-12T16:13:15.236Z,87.39
2023-01-12T16:14:18.254Z,87.34
2023-01-12T16:15:24.321Z,87.65
2023-01-12T16:16:28.617Z,87.95
2023-01-12T16:17:32.052Z,88.28
2023-01-12T16:18:34.632Z,88.16
2023-01-12T16:19:39.287Z,88.26
2023-01-12T16:20:41.645Z,87.20
2023-01-12T16:21:43.858Z,86.73
2023-01-12T16:22:46.733Z,86.65
2023-01-12T16:23:50.239Z,86.15
2023-01-12T16:24:55.002Z,86.45
2023-01-12T16:26:00.930Z,85.75
2023-01-12T16:27:03.690Z,85.81
2023-01-12T16:28:05.808Z,85.53
2023-01-12T16:29:08.515Z,85.18
2023-01-12T16:30:14.898Z,85.21
2023-01-12T16:31:18.339Z,85.31
2023-01-12T16:32:26.933Z,85.25
2023-01-12T16:33:29.862Z,85.47
2023-01-12T16:34:33.469Z,85.94
2023-01-12T16:35:35.961Z,85.53
2023-01-12T16:36:38.238Z,86.03
2023-01-12T16:37:40.950Z,85.57
2023-01-12T16:38:43.166Z,85.26
2023-01-12T16:39:45.312Z,85.28
2023-01-12T16:40:53.237Z,85.16
2023-01-12T16:42:05.613Z,85.13
2023-01-12T16:43:08.097Z,84.42
2023-01-12T16:44:11.290Z,84.73
2023-01-12T16:45:13.870Z,84.93
2023-01-12T16:46:17.000Z,85.53
2023-01-12T16:47:20.063Z,85.82
2023-01-12T16:48:22.500Z,85.88
2023-01-12T16:49:25.088Z,85.90
2023-01-12T16:50:27.332Z,86.14
2023-01-12T16:51:29.943Z,85.93
2023-01-12T16:52:32.077Z,85.98
2023-01-12T16:53:34.321Z,86.00
2023-01-12T16:54:38.591Z,86.35
2023-01-12T16:55:41.116Z,86.72
2023-01-12T16:56:43.146Z,86.10
2023-01-12T16:57:45.074Z,85.58
2023-01-12T16:58:48.786Z,86.88
2023-01-12T16:59:51.767Z,86.76
2023-01-12T17:00:57.128Z,86.94
2023-01-12T17:02:00.153Z,86.79
2023-01-12T17:03:03.732Z,86.50
2023-01-12T17:04:06.626Z,86.43
2023-01-12T17:05:09.986Z,86.53
2023-01-12T17:06:16.449Z,86.71
2023-01-12T17:07:21.556Z,86.39
2023-01-12T17:08:23.764Z,87.08
2023-01-12T17:09:25.995Z,87.54
2023-01-12T17:10:28.455Z,86.67
2023-01-12T17:11:33.163Z,86.55
2023-01-12T17:12:37.067Z,85.76
2023-01-12T17:13:39.570Z,85.78
2023-01-12T17:14:42.681Z,85.83
2023-01-12T17:15:48.008Z,85.78
2023-01-12T17:16:58.736Z,86.12
2023-01-12T17:18:01.296Z,86.29
2023-01-12T17:19:04.093Z,86.66
2023-01-12T17:20:09.435Z,86.90
2023-01-12T17:21:14.745Z,86.19
2023-01-12T17:22:17.556Z,86.64
2023-01-12T17:23:20.311Z,86.18
2023-01-12T17:24:23.532Z,85.81
2023-01-12T17:25:26.854Z,85.93
2023-01-12T17:26:29.162Z,86.67
2023-01-12T17:27:31.354Z,86.65
2023-01-12T17:28:36.649Z,85.85
2023-01-12T17:29:39.102Z,85.90
2023-01-12T17:30:42.559Z,85.46
2023-01-12T17:31:45.456Z,86.16
2023-01-12T17:32:49.056Z,86.62
2023-01-12T17:33:52.269Z,86.98
2023-01-12T17:34:54.598Z,87.41
2023-01-12T17:36:04.082Z,87.58
2023-01-12T17:37:10.284Z,87.21
2023-01-12T17:38:14.139Z,86.92
2023-01-12T17:39:18.777Z,86.10
2023-01-12T17:40:22.939Z,85.91
2023-01-12T17:41:44.659Z,85.66
2023-01-12T17:43:07.528Z,86.00
2023-01-12T17:44:09.305Z,85.31
2023-01-12T17:45:12.840Z,85.69
2023-01-12T17:46:18.742Z,85.94
2023-01-12T17:47:21.104Z,84.89
2023-01-12T17:48:23.342Z,84.69
2023-01-12T17:49:26.141Z,84.76
2023-01-12T17:50:28.394Z,85.61
2023-01-12T17:51:30.812Z,84.29
2023-01-12T17:52:32.936Z,84.26
2023-01-12T17:53:35.622Z,83.63
2023-01-12T17:54:38.456Z,83.38
2023-01-12T17:55:48.279Z,83.01
2023-01-12T17:56:46.366Z,82.55
2023-01-12T17:57:49.294Z,82.50
2023-01-12T17:58:53.542Z,83.50
2023-01-12T17:59:56.783Z,82.79
2023-01-12T18:00:59.193Z,84.27
2023-01-12T18:02:01.608Z,85.95
2023-01-12T18:03:04.539Z,84.75
2023-01-12T18:04:07.855Z,84.42
2023-01-12T18:05:11.292Z,83.71
2023-01-12T18:06:25.791Z,84.56
2023-01-12T18:07:45.124Z,84.35
2023-01-12T18:10:38.871Z,84.60
2023-01-12T18:11:42.074Z,85.54
2023-01-12T18:12:45.128Z,86.57
2023-01-12T18:13:48.256Z,86.80
2023-01-12T18:14:50.349Z,87.80
2023-01-12T18:15:53.301Z,85.93
2023-01-12T18:16:56.806Z,85.85
2023-01-12T18:17:58.981Z,86.12
2023-01-12T18:19:05.645Z,86.12
2023-01-12T18:20:09.130Z,86.36
2023-01-12T18:21:16.428Z,86.42
2023-01-12T18:22:19.294Z,85.22
2023-01-12T18:23:22.494Z,85.30
2023-01-12T18:24:26.617Z,85.48
2023-01-12T18:25:30.783Z,87.22
2023-01-12T18:26:35.843Z,87.93
2023-01-12T18:27:38.427Z,87.94
2023-01-12T18:28:41.583Z,87.21
2023-01-12T18:29:43.937Z,86.88
2023-01-12T18:30:46.560Z,86.51
2023-01-12T18:31:48.826Z,87.49
2023-01-12T18:32:50.827Z,87.22
2023-01-12T18:35:16.172Z,86.17
2023-01-12T18:36:21.109Z,86.47
2023-01-12T18:37:24.347Z,86.41
2023-01-12T18:38:27.184Z,85.48
2023-01-12T18:39:29.385Z,86.79
2023-01-12T18:40:33.129Z,85.28
2023-01-12T18:41:56.660Z,84.99
2023-01-12T18:43:04.193Z,86.33
2023-01-12T18:44:07.293Z,85.73
2023-01-12T18:45:10.200Z,88.19
2023-01-12T18:46:12.416Z,88.58
2023-01-12T18:47:34.641Z,86.68
2023-01-12T18:48:37.823Z,89.94
2023-01-12T18:49:40.716Z,89.17
2023-01-12T18:51:02.904Z,88.81
2023-01-12T18:52:24.842Z,89.69
2023-01-12T18:53:32.018Z,90.85
2023-01-12T18:54:44.551Z,89.53
2023-01-12T18:55:48.083Z,87.54
2023-01-12T18:56:51.133Z,87.35
2023-01-12T18:57:53.100Z,86.48
2023-01-12T18:58:55.699Z,86.71
2023-01-12T19:00:02.318Z,86.09
2023-01-12T19:01:14.305Z,85.18
2023-01-12T19:02:19.253Z,85.74
2023-01-12T19:03:21.960Z,87.01
2023-01-12T19:06:00.137Z,87.31
2023-01-12T19:07:07.919Z,86.83
2023-01-12T19:08:30.925Z,87.09
2023-01-12T19:09:36.899Z,87.39
2023-01-12T19:10:41.108Z,88.02
2023-01-12T19:11:44.216Z,88.98
2023-01-12T19:12:46.275Z,89.88
2023-01-12T19:14:07.443Z,88.01
2023-01-12T19:15:29.757Z,88.05
2023-01-12T19:16:52.115Z,87.32
2023-01-12T19:17:54.177Z,90.53
2023-01-12T19:18:56.532Z,89.21
2023-01-12T19:20:03.236Z,89.63
2023-01-12T19:21:27.094Z,90.90
2023-01-12T19:22:47.981Z,88.34
2023-01-12T19:24:08.713Z,88.12
2023-01-12T19:25:31.959Z,91.30
2023-01-12T19:26:53.619Z,90.10
2023-01-12T19:28:15.822Z,87.35
2023-01-12T19:29:19.365Z,86.66
2023-01-12T19:30:21.987Z,89.22
2023-01-12T19:31:26.576Z,90.93
2023-01-12T19:32:34.481Z,89.40
2023-01-12T19:33:38.010Z,91.41
2023-01-12T19:34:43.532Z,91.23
2023-01-12T19:35:46.916Z,91.26
2023-01-12T19:36:50.961Z,91.29
2023-01-12T19:37:54.279Z,92.93
2023-01-12T19:38:59.263Z,89.62
2023-01-12T19:40:04.536Z,88.54
2023-01-12T19:41:16.433Z,88.19
2023-01-12T19:42:37.371Z,87.90
2023-01-12T19:43:44.481Z,87.27
2023-01-12T19:44:47.560Z,87.64
2023-01-12T19:45:52.655Z,87.69
2023-01-12T19:46:55.827Z,87.43
2023-01-12T19:48:00.552Z,87.78
2023-01-12T19:49:04.982Z,87.76
2023-01-12T19:50:11.095Z,87.96